createdAt,value
2023-08-08T00:00:22.997Z,12.63
2023-08-08T00:02:49.652Z,12.69
2023-08-08T00:05:17.021Z,12.72
2023-08-08T00:07:43.602Z,12.72
2023-08-08T00:10:10.614Z,12.73
2023-08-08T00:12:37.156Z,12.68
2023-08-08T00:15:04.070Z,12.71
2023-08-08T00:17:30.642Z,12.72
2023-08-08T00:19:57.330Z,12.70
2023-08-08T00:22:23.914Z,12.70
2023-08-08T00:24:50.462Z,12.73
2023-08-08T00:27:17.018Z,12.76
2023-08-08T00:29:43.649Z,12.80
2023-08-08T00:32:10.196Z,12.68
2023-08-08T00:34:36.705Z,12.72
2023-08-08T00:37:03.419Z,12.68
2023-08-08T00:39:29.948Z,12.65
2023-08-08T00:41:56.913Z,12.62
2023-08-08T00:44:23.872Z,12.65
2023-08-08T00:46:50.705Z,12.56
2023-08-08T00:49:17.390Z,12.61
2023-08-08T00:51:44.229Z,12.62
2023-08-08T00:54:11.417Z,12.63
2023-08-08T00:56:38.043Z,12.64
2023-08-08T00:59:05.359Z,12.67
2023-08-08T01:01:31.929Z,12.67
2023-08-08T01:03:59.311Z,12.68
2023-08-08T01:07:11.050Z,12.68
2023-08-08T01:09:58.066Z,12.63
2023-08-08T01:12:26.668Z,12.53
2023-08-08T01:14:55.265Z,12.52
2023-08-08T01:17:23.301Z,12.52
2023-08-08T01:19:50.239Z,12.52
2023-08-08T01:22:25.898Z,12.46
2023-08-08T01:24:55.284Z,12.34
2023-08-08T01:27:23.177Z,12.35
2023-08-08T01:29:49.768Z,12.30
2023-08-08T01:32:16.456Z,12.36
2023-08-08T01:34:43.361Z,12.46
2023-08-08T01:37:24.094Z,12.46
2023-08-08T01:39:54.284Z,12.44
2023-08-08T01:42:24.720Z,12.36
2023-08-08T01:44:51.917Z,12.35
2023-08-08T01:47:18.736Z,12.36
2023-08-08T01:49:45.398Z,12.38
2023-08-08T01:52:12.072Z,12.38
2023-08-08T01:54:38.658Z,12.36
2023-08-08T01:57:05.955Z,12.28
2023-08-08T01:59:32.534Z,12.28
2023-08-08T02:01:59.277Z,12.25
2023-08-08T02:04:26.090Z,12.29
2023-08-08T02:06:52.728Z,12.24
2023-08-08T02:09:21.848Z,12.22
2023-08-08T02:11:48.725Z,12.23
2023-08-08T02:14:15.340Z,12.21
2023-08-08T02:16:43.572Z,12.21
2023-08-08T02:19:10.208Z,12.22
2023-08-08T02:21:36.892Z,12.07
2023-08-08T02:24:04.095Z,12.08
2023-08-08T02:26:30.772Z,12.02
2023-08-08T02:28:57.392Z,12.04
2023-08-08T02:31:23.979Z,12.01
2023-08-08T02:33:51.693Z,12.00
2023-08-08T02:36:19.438Z,11.97
2023-08-08T02:38:46.301Z,12.01
2023-08-08T02:41:12.944Z,11.95
2023-08-08T02:43:39.561Z,11.93
2023-08-08T02:46:06.202Z,11.84
2023-08-08T02:48:33.843Z,11.91
2023-08-08T02:51:00.480Z,11.93
2023-08-08T02:53:27.074Z,11.89
2023-08-08T02:55:53.660Z,11.91
2023-08-08T02:58:20.243Z,11.93
2023-08-08T03:00:46.896Z,11.91
2023-08-08T03:03:13.485Z,11.86
2023-08-08T03:05:40.059Z,11.87
2023-08-08T03:08:06.956Z,11.84
2023-08-08T03:10:33.604Z,11.83
2023-08-08T03:13:00.189Z,11.74
2023-08-08T03:15:26.730Z,11.78
2023-08-08T03:17:53.323Z,11.66
2023-08-08T03:20:20.306Z,11.65
2023-08-08T03:22:46.928Z,11.63
2023-08-08T03:25:13.533Z,11.65
2023-08-08T03:27:40.156Z,11.55
2023-08-08T03:30:07.806Z,11.61
2023-08-08T03:32:34.458Z,11.55
2023-08-08T03:35:01.040Z,11.55
2023-08-08T03:37:27.616Z,11.62
2023-08-08T03:39:54.244Z,11.64
2023-08-08T03:42:20.873Z,11.64
2023-08-08T03:44:47.500Z,11.66
2023-08-08T03:47:19.961Z,11.65
2023-08-08T03:49:47.087Z,11.67
2023-08-08T03:52:14.049Z,11.67
2023-08-08T03:54:40.974Z,11.66
2023-08-08T03:57:07.779Z,11.70
2023-08-08T03:59:34.359Z,11.79
2023-08-08T04:02:01.418Z,11.80
2023-08-08T04:04:28.336Z,11.75
2023-08-08T04:06:54.902Z,11.83
2023-08-08T04:09:22.082Z,11.88
2023-08-08T04:11:48.820Z,11.92
2023-08-08T04:14:15.408Z,11.93
2023-08-08T04:16:42.075Z,11.97
2023-08-08T04:19:08.725Z,11.92
2023-08-08T04:21:35.313Z,12.01
2023-08-08T04:24:02.597Z,12.07
2023-08-08T04:26:29.211Z,12.19
2023-08-08T04:28:56.591Z,12.24
2023-08-08T04:31:26.157Z,12.26
2023-08-08T04:33:57.047Z,12.30
2023-08-08T04:36:24.302Z,12.29
2023-08-08T04:38:50.865Z,12.34
2023-08-08T04:41:17.468Z,12.33
2023-08-08T04:43:44.061Z,12.40
2023-08-08T04:46:10.887Z,12.45
2023-08-08T04:48:38.568Z,12.45
2023-08-08T04:51:09.724Z,12.50
2023-08-08T04:53:36.336Z,12.50
2023-08-08T04:56:03.143Z,12.48
2023-08-08T04:58:29.789Z,12.53
2023-08-08T05:00:56.403Z,12.48
2023-08-08T05:03:23.317Z,12.49
2023-08-08T05:05:49.992Z,12.50
2023-08-08T05:08:16.839Z,12.54
2023-08-08T05:10:43.461Z,12.58
2023-08-08T05:13:11.638Z,12.65
2023-08-08T05:15:38.218Z,12.74
2023-08-08T05:18:05.409Z,12.83
2023-08-08T05:20:32.030Z,12.90
2023-08-08T05:22:58.588Z,13.04
2023-08-08T05:25:25.228Z,13.19
2023-08-08T05:27:51.910Z,13.35
2023-08-08T05:30:18.571Z,13.56
2023-08-08T05:32:45.226Z,13.70
2023-08-08T05:35:11.853Z,13.86
2023-08-08T05:37:38.423Z,13.97
2023-08-08T05:40:07.327Z,14.09
2023-08-08T05:42:34.729Z,14.14
2023-08-08T05:45:01.382Z,14.18
2023-08-08T05:47:27.998Z,14.15
2023-08-08T05:49:55.013Z,14.04
2023-08-08T05:52:22.941Z,14.01
2023-08-08T05:54:49.604Z,14.02
2023-08-08T05:57:16.248Z,13.97
2023-08-08T05:59:45.837Z,13.99
2023-08-08T06:02:12.469Z,14.02
2023-08-08T06:04:39.086Z,14.01
2023-08-08T06:07:07.566Z,14.05
2023-08-08T06:09:37.821Z,13.96
2023-08-08T06:12:04.934Z,13.97
2023-08-08T06:14:32.140Z,13.98
2023-08-08T06:16:58.727Z,14.00
2023-08-08T06:19:25.379Z,14.07
2023-08-08T06:21:51.955Z,14.03
2023-08-08T06:24:18.768Z,13.98
2023-08-08T06:26:45.380Z,13.96
2023-08-08T06:29:13.427Z,14.02
2023-08-08T06:31:40.116Z,14.06
2023-08-08T06:34:07.032Z,14.14
2023-08-08T06:36:33.609Z,14.17
2023-08-08T06:39:00.200Z,14.21
2023-08-08T06:41:26.773Z,14.21
2023-08-08T06:43:53.497Z,14.28
2023-08-08T06:46:21.729Z,14.26
2023-08-08T06:48:49.014Z,14.20
2023-08-08T06:51:15.970Z,14.27
2023-08-08T06:53:42.548Z,14.30
2023-08-08T06:56:09.152Z,14.32
2023-08-08T06:58:35.712Z,14.19
2023-08-08T07:01:02.354Z,14.24
2023-08-08T07:03:29.152Z,14.22
2023-08-08T07:05:55.773Z,14.21
2023-08-08T07:08:22.937Z,14.26
2023-08-08T07:10:49.562Z,14.25
2023-08-08T07:13:16.683Z,14.24
2023-08-08T07:15:43.484Z,14.30
2023-08-08T07:18:10.407Z,14.30
2023-08-08T07:20:36.975Z,14.27
2023-08-08T07:23:03.865Z,14.35
2023-08-08T07:25:30.489Z,14.57
2023-08-08T07:27:57.216Z,14.68
2023-08-08T07:30:23.935Z,14.62
2023-08-08T07:32:50.576Z,14.71
2023-08-08T07:35:17.194Z,15.01
2023-08-08T07:37:44.303Z,14.94
2023-08-08T07:40:21.745Z,14.99
2023-08-08T07:42:49.569Z,15.06
2023-08-08T07:45:16.853Z,15.25
2023-08-08T07:47:43.478Z,15.31
2023-08-08T07:50:10.711Z,15.44
2023-08-08T07:52:39.432Z,15.21
2023-08-08T07:55:06.674Z,15.33
2023-08-08T07:57:36.500Z,15.57
2023-08-08T08:00:12.516Z,15.64
2023-08-08T08:02:40.558Z,15.73
2023-08-08T08:05:08.976Z,15.74
2023-08-08T08:07:36.718Z,15.67
2023-08-08T08:10:04.419Z,15.63
2023-08-08T08:12:31.767Z,15.78
2023-08-08T08:14:59.326Z,16.06
2023-08-08T08:17:25.990Z,15.75
2023-08-08T08:19:52.604Z,15.75
2023-08-08T08:22:19.298Z,15.96
2023-08-08T08:24:47.094Z,15.97
2023-08-08T08:27:14.232Z,15.99
2023-08-08T08:29:41.077Z,16.16
2023-08-08T08:32:07.854Z,16.51
2023-08-08T08:34:34.423Z,16.61
2023-08-08T08:37:01.008Z,16.68
2023-08-08T08:39:27.584Z,16.69
2023-08-08T08:42:02.873Z,16.56
2023-08-08T08:44:30.876Z,16.54
2023-08-08T08:47:02.620Z,16.48
2023-08-08T08:49:32.697Z,16.77
2023-08-08T08:52:05.914Z,16.76
2023-08-08T08:54:33.629Z,16.52
2023-08-08T08:57:00.466Z,16.55
2023-08-08T08:59:27.105Z,16.51
2023-08-08T09:01:54.882Z,16.54
2023-08-08T09:04:23.061Z,16.15
2023-08-08T09:06:51.583Z,16.14
2023-08-08T09:09:18.945Z,16.12
2023-08-08T09:11:55.937Z,16.11
2023-08-08T09:14:24.316Z,16.05
2023-08-08T09:16:55.510Z,16.04
2023-08-08T09:19:22.858Z,16.08
2023-08-08T09:21:51.254Z,15.98
2023-08-08T09:24:18.394Z,15.94
2023-08-08T09:26:46.085Z,15.90
2023-08-08T09:29:15.840Z,15.81
2023-08-08T09:31:42.803Z,15.85
2023-08-08T09:34:09.581Z,15.88
2023-08-08T09:36:36.387Z,15.96
2023-08-08T09:39:03.552Z,15.93
2023-08-08T09:41:30.659Z,15.86
2023-08-08T09:43:57.339Z,15.85
2023-08-08T09:46:23.996Z,15.81
2023-08-08T09:48:51.632Z,15.88
2023-08-08T09:51:18.431Z,16.16
2023-08-08T09:53:48.256Z,16.22
2023-08-08T09:56:15.425Z,16.38
2023-08-08T09:58:43.752Z,16.45
2023-08-08T10:01:11.622Z,16.51
2023-08-08T10:03:39.028Z,16.65
2023-08-08T10:06:06.542Z,16.44
2023-08-08T10:08:33.336Z,16.50
2023-08-08T10:11:00.517Z,16.72
2023-08-08T10:13:28.297Z,16.97
2023-08-08T10:15:56.319Z,17.08
2023-08-08T10:18:24.040Z,17.23
2023-08-08T10:20:52.018Z,17.23
2023-08-08T10:23:19.645Z,17.26
2023-08-08T10:25:52.583Z,17.33
2023-08-08T10:28:26.986Z,17.64
2023-08-08T10:30:56.804Z,17.88
2023-08-08T10:33:29.160Z,17.79
2023-08-08T10:36:10.010Z,17.53
2023-08-08T10:38:42.503Z,17.69
2023-08-08T10:41:27.997Z,17.73
2023-08-08T10:43:57.903Z,17.43
2023-08-08T10:46:29.308Z,17.25
2023-08-08T10:49:00.577Z,17.36
2023-08-08T10:51:53.882Z,17.50
2023-08-08T10:54:24.330Z,17.78
2023-08-08T10:56:56.318Z,17.90
2023-08-08T10:59:30.916Z,17.79
2023-08-08T11:01:58.508Z,17.76
2023-08-08T11:04:27.136Z,17.96
2023-08-08T11:06:55.469Z,18.09
2023-08-08T11:09:22.943Z,17.93
2023-08-08T11:11:49.700Z,18.22
2023-08-08T11:14:17.414Z,18.21
2023-08-08T11:16:46.000Z,18.65
2023-08-08T11:19:17.088Z,19.01
2023-08-08T11:21:45.359Z,19.24
2023-08-08T11:24:13.570Z,19.18
2023-08-08T11:26:42.249Z,18.67
2023-08-08T11:29:09.184Z,18.88
2023-08-08T11:31:36.606Z,18.78
2023-08-08T11:34:05.014Z,18.93
2023-08-08T11:36:33.846Z,18.93
2023-08-08T11:39:08.880Z,19.02
2023-08-08T11:41:36.163Z,18.99
2023-08-08T11:44:06.647Z,19.22
2023-08-08T11:46:33.490Z,18.87
2023-08-08T11:49:07.927Z,19.23
2023-08-08T11:51:35.647Z,19.29
2023-08-08T11:54:07.624Z,19.12
2023-08-08T11:56:35.803Z,19.24
2023-08-08T11:59:03.147Z,19.92
2023-08-08T12:01:32.517Z,20.95
2023-08-08T12:03:59.357Z,21.34
2023-08-08T12:06:30.403Z,20.81
2023-08-08T12:08:57.307Z,20.34
2023-08-08T12:11:26.396Z,19.88
2023-08-08T12:14:00.848Z,19.60
2023-08-08T12:16:33.863Z,19.54
2023-08-08T12:19:05.407Z,19.24
2023-08-08T12:21:34.262Z,18.83
2023-08-08T12:24:01.233Z,18.86
2023-08-08T12:26:27.810Z,19.19
2023-08-08T12:28:55.533Z,19.42
2023-08-08T12:31:22.396Z,19.45
2023-08-08T12:33:50.020Z,19.37
2023-08-08T12:36:16.809Z,19.40
2023-08-08T12:38:43.537Z,19.40
2023-08-08T12:41:12.003Z,19.17
2023-08-08T12:43:38.672Z,19.03
2023-08-08T12:46:05.377Z,19.39
2023-08-08T12:48:32.406Z,19.88
2023-08-08T12:50:59.148Z,20.51
2023-08-08T12:53:26.239Z,20.80
2023-08-08T12:55:52.859Z,20.54
2023-08-08T12:58:20.133Z,20.40
2023-08-08T13:00:47.480Z,20.18
2023-08-08T13:03:14.313Z,20.04
2023-08-08T13:05:41.213Z,19.94
2023-08-08T13:08:07.873Z,19.61
2023-08-08T13:10:34.573Z,19.48
2023-08-08T13:13:01.258Z,19.44
2023-08-08T13:15:27.885Z,19.44
2023-08-08T13:17:54.558Z,19.73
2023-08-08T13:20:21.168Z,20.00
2023-08-08T13:22:47.756Z,20.95
2023-08-08T13:25:14.403Z,20.72
2023-08-08T13:27:41.042Z,20.42
2023-08-08T13:30:08.349Z,19.88
2023-08-08T13:32:34.991Z,19.72
2023-08-08T13:35:01.527Z,19.43
2023-08-08T13:37:28.097Z,18.92
2023-08-08T13:39:54.699Z,17.27
2023-08-08T13:42:21.271Z,17.28
2023-08-08T13:44:47.898Z,18.37
2023-08-08T13:47:14.507Z,19.70
2023-08-08T13:49:41.071Z,20.24
2023-08-08T13:52:07.708Z,19.74
2023-08-08T13:54:34.309Z,19.34
2023-08-08T13:57:00.892Z,19.10
2023-08-08T13:59:27.911Z,19.07
2023-08-08T14:01:54.543Z,18.79
2023-08-08T14:04:21.212Z,18.63
2023-08-08T14:06:47.767Z,19.10
2023-08-08T14:09:16.489Z,19.80
2023-08-08T14:11:44.774Z,19.44
2023-08-08T14:14:11.322Z,19.31
2023-08-08T14:16:38.076Z,19.28
2023-08-08T14:19:04.789Z,19.24
2023-08-08T14:21:31.372Z,18.96
2023-08-08T14:23:57.974Z,18.73
2023-08-08T14:26:24.566Z,18.67
2023-08-08T14:28:51.132Z,18.68
2023-08-08T14:31:17.735Z,19.05
2023-08-08T14:33:44.378Z,19.49
2023-08-08T14:36:10.971Z,19.81
2023-08-08T14:38:38.418Z,20.28
2023-08-08T14:41:05.165Z,20.78
2023-08-08T14:43:31.967Z,21.00
2023-08-08T14:45:58.686Z,20.63
2023-08-08T14:48:25.550Z,19.91
2023-08-08T14:50:52.331Z,19.85
2023-08-08T14:53:18.987Z,21.58
2023-08-08T14:55:45.707Z,21.33
2023-08-08T14:58:13.564Z,20.99
2023-08-08T15:00:40.243Z,20.12
2023-08-08T15:03:07.000Z,19.71
2023-08-08T15:05:33.836Z,19.58
2023-08-08T15:08:00.548Z,19.79
2023-08-08T15:10:27.234Z,20.22
2023-08-08T15:12:54.007Z,20.39
2023-08-08T15:15:23.960Z,19.84
2023-08-08T15:17:50.840Z,19.26
2023-08-08T15:20:17.445Z,19.09
2023-08-08T15:22:44.337Z,19.03
2023-08-08T15:25:10.983Z,19.22
2023-08-08T15:27:37.805Z,19.46
2023-08-08T15:30:05.539Z,19.67
2023-08-08T15:32:32.197Z,21.06
2023-08-08T15:34:59.480Z,22.08
2023-08-08T15:37:26.093Z,22.89
2023-08-08T15:39:52.753Z,21.81
2023-08-08T15:42:19.362Z,21.23
2023-08-08T15:44:46.034Z,21.90
2023-08-08T15:47:13.659Z,21.81
2023-08-08T15:49:40.283Z,20.84
2023-08-08T15:52:07.005Z,20.48
2023-08-08T15:54:33.665Z,19.60
2023-08-08T15:57:03.360Z,19.20
2023-08-08T15:59:31.361Z,18.96
2023-08-08T16:01:58.259Z,18.72
2023-08-08T16:04:24.887Z,18.62
2023-08-08T16:06:51.475Z,18.61
2023-08-08T16:09:18.127Z,18.49
2023-08-08T16:11:44.973Z,18.57
2023-08-08T16:14:11.570Z,18.68
2023-08-08T16:16:38.164Z,18.82
2023-08-08T16:19:05.053Z,18.52
2023-08-08T16:21:31.719Z,18.36
2023-08-08T16:23:58.358Z,18.35
2023-08-08T16:26:24.951Z,18.16
2023-08-08T16:28:51.636Z,18.10
2023-08-08T16:31:18.340Z,18.03
2023-08-08T16:33:45.052Z,17.90
2023-08-08T16:36:11.637Z,17.87
2023-08-08T16:38:38.310Z,17.76
2023-08-08T16:41:05.316Z,17.68
2023-08-08T16:43:37.089Z,17.59
2023-08-08T16:46:04.217Z,17.53
2023-08-08T16:48:31.633Z,17.53
2023-08-08T16:50:58.324Z,17.46
2023-08-08T16:53:25.583Z,17.43
2023-08-08T16:55:52.209Z,17.47
2023-08-08T16:58:18.776Z,17.67
2023-08-08T17:00:45.501Z,17.83
2023-08-08T17:03:14.493Z,17.53
2023-08-08T17:05:41.765Z,17.49
2023-08-08T17:08:08.502Z,17.31
2023-08-08T17:10:36.969Z,17.16
2023-08-08T17:13:04.370Z,17.44
2023-08-08T17:15:30.957Z,17.74
2023-08-08T17:17:57.575Z,18.48
2023-08-08T17:20:24.639Z,19.14
2023-08-08T17:22:51.325Z,18.16
2023-08-08T17:25:18.162Z,17.93
2023-08-08T17:27:45.458Z,17.74
2023-08-08T17:30:13.085Z,17.74
2023-08-08T17:32:39.791Z,17.17
2023-08-08T17:35:08.122Z,17.12
2023-08-08T17:37:34.903Z,17.06
2023-08-08T17:40:01.481Z,17.06
2023-08-08T17:42:28.082Z,16.82
2023-08-08T17:44:54.812Z,16.57
2023-08-08T17:47:21.695Z,16.43
2023-08-08T17:49:48.286Z,16.41
2023-08-08T17:52:14.884Z,16.25
2023-08-08T17:54:41.468Z,16.49
2023-08-08T17:57:08.057Z,16.35
2023-08-08T17:59:34.675Z,16.36
2023-08-08T18:02:01.641Z,16.45
2023-08-08T18:04:28.347Z,16.49
2023-08-08T18:06:54.890Z,16.43
2023-08-08T18:09:22.756Z,16.72
2023-08-08T18:11:49.578Z,16.88
2023-08-08T18:14:16.336Z,16.95
2023-08-08T18:16:42.980Z,16.71
2023-08-08T18:19:09.707Z,16.31
2023-08-08T18:21:37.389Z,16.11
2023-08-08T18:24:04.729Z,15.89
2023-08-08T18:26:31.329Z,15.71
2023-08-08T18:28:57.915Z,15.70
2023-08-08T18:31:24.608Z,15.64
2023-08-08T18:33:58.837Z,15.68
2023-08-08T18:36:26.146Z,15.63
2023-08-08T18:38:52.930Z,15.59
2023-08-08T18:41:19.948Z,15.53
2023-08-08T18:43:46.849Z,15.55
2023-08-08T18:46:14.331Z,15.52
2023-08-08T18:48:41.326Z,15.41
2023-08-08T18:51:07.958Z,15.37
2023-08-08T18:53:36.366Z,15.30
2023-08-08T18:56:03.208Z,15.22
2023-08-08T18:58:29.840Z,15.20
2023-08-08T19:00:56.487Z,15.18
2023-08-08T19:03:23.267Z,15.12
2023-08-08T19:05:49.949Z,15.12
2023-08-08T19:08:16.549Z,15.02
2023-08-08T19:10:43.163Z,14.98
2023-08-08T19:13:09.803Z,15.00
2023-08-08T19:15:37.158Z,14.95
2023-08-08T19:18:04.075Z,15.03
2023-08-08T19:20:30.732Z,15.06
2023-08-08T19:22:57.530Z,15.01
2023-08-08T19:25:24.189Z,14.98
2023-08-08T19:27:50.812Z,14.99
2023-08-08T19:30:17.472Z,14.98
2023-08-08T19:32:44.133Z,14.89
2023-08-08T19:35:10.831Z,14.90
2023-08-08T19:37:37.488Z,14.88
2023-08-08T19:40:04.380Z,14.89
2023-08-08T19:42:31.068Z,14.96
2023-08-08T19:44:57.737Z,14.92
2023-08-08T19:47:24.391Z,14.90
2023-08-08T19:49:51.079Z,14.94
2023-08-08T19:52:17.769Z,14.99
2023-08-08T19:54:44.443Z,14.97
2023-08-08T19:57:11.022Z,14.92
2023-08-08T19:59:37.702Z,14.95
2023-08-08T20:02:05.852Z,14.87
2023-08-08T20:04:32.488Z,14.99
2023-08-08T20:06:59.281Z,14.99
2023-08-08T20:09:26.046Z,15.01
2023-08-08T20:11:52.971Z,15.00
2023-08-08T20:14:19.731Z,14.97
2023-08-08T20:16:46.541Z,14.81
2023-08-08T20:19:13.516Z,14.83
2023-08-08T20:21:40.160Z,14.90
2023-08-08T20:24:09.327Z,14.83
2023-08-08T20:26:36.020Z,14.94
2023-08-08T20:29:02.679Z,14.96
2023-08-08T20:31:29.337Z,15.01
2023-08-08T20:33:57.540Z,14.99
2023-08-08T20:36:24.690Z,15.01
2023-08-08T20:38:51.404Z,14.95
2023-08-08T20:41:18.053Z,14.95
2023-08-08T20:43:44.701Z,14.90
2023-08-08T20:46:14.604Z,14.88
2023-08-08T20:48:42.046Z,14.87
2023-08-08T20:51:08.673Z,14.86
2023-08-08T20:53:35.309Z,14.90
2023-08-08T20:56:03.774Z,14.90
2023-08-08T20:58:30.941Z,14.91
2023-08-08T21:00:57.623Z,14.85
2023-08-08T21:03:24.329Z,14.92
2023-08-08T21:05:51.067Z,14.89
2023-08-08T21:08:17.733Z,14.89
2023-08-08T21:10:44.489Z,14.81
2023-08-08T21:13:11.086Z,14.69
2023-08-08T21:15:37.669Z,14.77
2023-08-08T21:18:04.674Z,14.81
2023-08-08T21:20:31.294Z,14.80
2023-08-08T21:22:58.465Z,14.80
2023-08-08T21:25:25.309Z,14.78
2023-08-08T21:27:51.970Z,14.83
2023-08-08T21:30:18.592Z,14.83
2023-08-08T21:32:45.300Z,14.82
2023-08-08T21:35:11.957Z,14.79
2023-08-08T21:37:39.671Z,14.87
2023-08-08T21:40:07.696Z,14.80
2023-08-08T21:42:34.344Z,14.83
2023-08-08T21:45:01.067Z,14.76
2023-08-08T21:47:27.664Z,14.72
2023-08-08T21:49:54.249Z,14.66
2023-08-08T21:52:20.929Z,14.57
2023-08-08T21:54:47.502Z,14.57
2023-08-08T21:57:14.374Z,14.51
2023-08-08T21:59:40.957Z,14.48
2023-08-08T22:02:07.669Z,14.46
2023-08-08T22:04:37.228Z,14.44
2023-08-08T22:07:04.650Z,14.40
2023-08-08T22:09:31.218Z,14.26
2023-08-08T22:11:57.942Z,14.32
2023-08-08T22:14:25.230Z,14.31
2023-08-08T22:16:52.053Z,14.37
2023-08-08T22:19:18.739Z,14.33
2023-08-08T22:21:45.329Z,14.33
2023-08-08T22:24:11.896Z,14.40
2023-08-08T22:26:38.504Z,14.46
2023-08-08T22:29:05.052Z,14.51
2023-08-08T22:31:31.795Z,14.46
2023-08-08T22:34:01.158Z,14.42
2023-08-08T22:36:28.129Z,14.53
2023-08-08T22:38:54.768Z,14.54
2023-08-08T22:41:21.445Z,14.65
2023-08-08T22:43:48.072Z,14.63
2023-08-08T22:46:14.724Z,14.64
2023-08-08T22:48:41.336Z,14.67
2023-08-08T22:51:07.880Z,14.66
2023-08-08T22:53:34.488Z,14.68
2023-08-08T22:56:01.168Z,14.65
2023-08-08T22:58:27.806Z,14.67
2023-08-08T23:00:54.402Z,14.53
2023-08-08T23:03:21.018Z,14.48
2023-08-08T23:05:47.883Z,14.48
2023-08-08T23:08:14.488Z,14.40
2023-08-08T23:10:41.611Z,14.41
2023-08-08T23:13:08.207Z,14.35
2023-08-08T23:15:34.865Z,14.36
2023-08-08T23:18:01.464Z,14.32
2023-08-08T23:20:28.160Z,14.32
2023-08-08T23:22:54.740Z,14.31
2023-08-08T23:25:23.782Z,14.31
2023-08-08T23:27:50.722Z,14.26
2023-08-08T23:30:17.348Z,14.24
2023-08-08T23:32:46.769Z,14.11
2023-08-08T23:35:21.004Z,14.15
2023-08-08T23:37:47.586Z,14.11
2023-08-08T23:40:14.466Z,14.13
2023-08-08T23:42:41.029Z,14.16
2023-08-08T23:45:08.382Z,14.17
2023-08-08T23:47:35.002Z,14.14
2023-08-08T23:50:04.915Z,14.16
2023-08-08T23:52:31.528Z,14.20
2023-08-08T23:54:59.056Z,14.19
2023-08-08T23:57:25.629Z,14.14
2023-08-08T23:59:52.491Z,14.14
